Time;durP1;ratioP1;P1;durP2;ratioP2;P2;SDS_P1;SDS_P2;PMS_P1;PMS_P2;Temp;Humidity;BMP_temperature;BMP_pressure;BME280_temperature;BME280_humidity;BME280_pressure;Samples;Min_cycle;Max_cycle;Signal;HPM_P1;HPM_P2
2022/03/03 00:00:15;;;;;;;27.92;18.73;;;;;;;1.35;60.80;101945.75;5032653;28;20039;-52
2022/03/03 00:02:41;;;;;;;28.13;19.35;;;;;;;1.31;60.67;101945.34;5033037;28;20477;-52
2022/03/03 00:05:07;;;;;;;27.88;18.58;;;;;;;1.27;60.93;101943.28;5032346;28;20029;-54
2022/03/03 00:07:33;;;;;;;29.02;18.83;;;;;;;1.26;60.73;101944.34;5032847;28;20443;-52
2022/03/03 00:09:58;;;;;;;25.90;17.80;;;;;;;1.23;61.17;101945.56;5032180;28;20052;-52
2022/03/03 00:12:23;;;;;;;28.42;19.10;;;;;;;1.23;60.83;101945.56;5031794;28;20084;-53
2022/03/03 00:14:48;;;;;;;27.52;18.60;;;;;;;1.20;61.11;101940.56;5032636;28;20025;-52
2022/03/03 00:17:14;;;;;;;27.73;18.42;;;;;;;1.18;61.46;101942.69;5033081;28;20045;-54
2022/03/03 00:19:40;;;;;;;28.70;17.92;;;;;;;1.17;61.06;101950.03;5032965;28;20018;-54
2022/03/03 00:22:06;;;;;;;28.95;18.77;;;;;;;1.15;61.72;101943.94;5032877;28;20036;-56
2022/03/03 00:24:31;;;;;;;27.80;18.55;;;;;;;1.12;62.26;101944.38;5032703;28;20026;-53
2022/03/03 00:26:57;;;;;;;27.08;18.15;;;;;;;1.12;61.55;101943.56;5032998;28;20412;-54
2022/03/03 00:29:22;;;;;;;27.88;18.55;;;;;;;1.10;61.54;101938.28;5032215;28;20470;-50
2022/03/03 00:31:47;;;;;;;29.17;18.70;;;;;;;1.10;61.68;101941.03;5014511;28;20129;-51
2022/03/03 00:34:13;;;;;;;27.40;18.70;;;;;;;1.06;61.38;101937.88;5032353;28;20500;-53
2022/03/03 00:36:39;;;;;;;28.48;18.70;;;;;;;1.04;61.92;101945.44;5032427;28;20029;-53
2022/03/03 00:39:05;;;;;;;29.00;18.42;;;;;;;0.98;61.69;101938.13;5032427;28;20025;-55
2022/03/03 00:41:30;;;;;;;28.38;18.23;;;;;;;0.94;61.83;101934.19;5032249;28;20599;-52
2022/03/03 00:43:56;;;;;;;27.73;18.35;;;;;;;0.89;62.38;101934.81;5032351;28;20021;-53
2022/03/03 00:46:21;;;;;;;28.13;19.45;;;;;;;0.84;62.93;101934.63;5031669;28;20029;-54
2022/03/03 00:48:46;;;;;;;28.95;19.20;;;;;;;0.78;63.53;101935.47;5032177;28;20389;-52
2022/03/03 00:51:12;;;;;;;27.70;18.80;;;;;;;0.72;63.55;101934.44;5032787;28;20392;-51
2022/03/03 00:53:37;;;;;;;29.90;20.17;;;;;;;0.67;63.47;101927.97;5036637;28;20025;-52
2022/03/03 00:56:04;;;;;;;27.45;17.92;;;;;;;0.61;63.61;101926.91;5035862;28;20060;-54
2022/03/03 00:58:29;;;;;;;27.25;18.83;;;;;;;0.58;63.96;101924.63;5035964;28;20155;-55
2022/03/03 01:00:55;;;;;;;28.75;18.67;;;;;;;0.55;64.32;101928.59;5036245;28;20060;-54
2022/03/03 01:03:21;;;;;;;29.55;19.25;;;;;;;0.54;64.19;101926.09;5035591;28;20116;-55
2022/03/03 01:05:46;;;;;;;28.45;19.40;;;;;;;0.50;64.12;101925.69;5035875;28;20477;-55
2022/03/03 01:08:12;;;;;;;29.60;19.23;;;;;;;0.49;64.20;101929.47;5035906;28;20074;-52
2022/03/03 01:10:39;;;;;;;27.58;18.58;;;;;;;0.49;64.26;101925.88;5035423;28;20065;-54
2022/03/03 01:13:05;;;;;;;29.13;19.05;;;;;;;0.46;64.04;101919.84;5035236;28;20025;-52
2022/03/03 01:15:30;;;;;;;27.00;18.63;;;;;;;0.44;64.40;101915.63;5034983;28;20036;-55
2022/03/03 01:17:55;;;;;;;27.90;18.70;;;;;;;0.46;64.35;101918.97;5035731;28;20100;-54
2022/03/03 01:20:21;;;;;;;27.85;18.00;;;;;;;0.46;64.26;101916.25;5035590;28;20466;-54
2022/03/03 01:22:46;;;;;;;28.90;18.65;;;;;;;0.44;64.19;101912.91;5036115;28;20032;-54
2022/03/03 01:25:11;;;;;;;27.88;18.38;;;;;;;0.44;64.19;101918.34;5017523;28;20022;-54
2022/03/03 01:27:38;;;;;;;29.35;19.17;;;;;;;0.40;64.48;101917.94;5035596;28;20032;-54
2022/03/03 01:30:04;;;;;;;28.42;19.17;;;;;;;0.38;64.38;101919.22;5035439;28;20076;-54
2022/03/03 01:32:29;;;;;;;28.55;18.20;;;;;;;0.34;64.85;101916.06;5035279;28;20036;-55
2022/03/03 01:34:55;;;;;;;29.38;18.60;;;;;;;0.33;64.53;101902.69;5035444;28;20025;-54
2022/03/03 01:37:20;;;;;;;26.92;18.40;;;;;;;0.29;64.86;101900.38;5035588;28;20021;-53
2022/03/03 01:39:45;;;;;;;27.60;18.77;;;;;;;0.22;64.95;101888.66;5035807;28;20028;-54
2022/03/03 01:42:14;;;;;;;29.23;18.58;;;;;;;0.20;65.24;101893.47;5035259;28;20072;-53
2022/03/03 01:44:43;;;;;;;29.60;19.38;;;;;;;0.21;65.38;101887.00;5035474;28;20029;-54
2022/03/03 01:47:17;;;;;;;29.65;18.95;;;;;;;0.19;65.55;101889.09;5034998;28;20038;-53
2022/03/03 01:49:42;;;;;;;27.50;18.88;;;;;;;0.16;65.26;101884.06;5035116;28;20025;-52
2022/03/03 01:52:07;;;;;;;27.83;18.88;;;;;;;0.11;65.63;101887.41;5035221;28;20071;-54
2022/03/03 01:54:33;;;;;;;26.10;17.90;;;;;;;0.07;65.88;101885.31;5035227;28;20121;-58
2022/03/03 01:56:58;;;;;;;27.77;18.48;;;;;;;0.02;67.02;101879.69;5016710;28;20025;-55
2022/03/03 01:59:25;;;;;;;27.90;19.10;;;;;;;-0.05;67.79;101880.50;5034612;28;20033;-54
2022/03/03 02:01:51;;;;;;;30.85;19.48;;;;;;;-0.12;66.92;101881.56;5034963;28;20029;-55
2022/03/03 02:04:16;;;;;;;28.98;19.13;;;;;;;-0.18;67.77;101872.34;5033646;28;20029;-53
2022/03/03 02:06:41;;;;;;;28.52;18.48;;;;;;;-0.25;67.54;101874.25;5034731;28;20028;-55
2022/03/03 02:09:07;;;;;;;29.00;19.15;;;;;;;-0.31;68.37;101875.91;5034757;28;20037;-54
2022/03/03 02:11:33;;;;;;;30.88;19.88;;;;;;;-0.36;68.13;101884.69;5033506;28;20057;-54
2022/03/03 02:14:01;;;;;;;29.17;19.08;;;;;;;-0.41;68.94;101875.47;5033948;28;20034;-54
2022/03/03 02:16:26;;;;;;;28.67;19.60;;;;;;;-0.43;69.22;101880.28;5034384;28;20084;-54
2022/03/03 02:18:51;;;;;;;30.92;19.65;;;;;;;-0.48;69.69;101872.75;5034446;28;20489;-54
2022/03/03 02:21:17;;;;;;;29.60;18.50;;;;;;;-0.53;69.68;101878.78;5034378;28;20103;-53
2022/03/03 02:23:43;;;;;;;28.60;20.42;;;;;;;-0.59;69.78;101878.78;5034727;28;20087;-51
2022/03/03 02:26:12;;;;;;;32.00;19.95;;;;;;;-0.65;70.25;101870.41;5034203;28;20033;-54
2022/03/03 02:28:40;;;;;;;30.10;19.65;;;;;;;-0.69;70.56;101869.13;5034433;28;20032;-52
2022/03/03 02:31:05;;;;;;;31.42;19.95;;;;;;;-0.70;70.86;101855.75;5016180;28;20029;-56
2022/03/03 02:33:30;;;;;;;28.67;19.77;;;;;;;-0.70;70.62;101861.19;5034608;28;20030;-55
2022/03/03 02:35:55;;;;;;;28.67;18.50;;;;;;;-0.71;70.22;101863.06;5034172;28;20496;-55
2022/03/03 02:38:21;;;;;;;32.40;20.08;;;;;;;-0.70;70.01;101858.47;5034406;28;20036;-51
2022/03/03 02:40:46;;;;;;;30.85;20.45;;;;;;;-0.69;69.85;101866.41;5034375;28;20095;-51
2022/03/03 02:43:11;;;;;;;27.92;18.88;;;;;;;-0.70;69.99;101856.59;5033868;28;20026;-54
2022/03/03 02:45:36;;;;;;;29.27;19.08;;;;;;;-0.70;69.60;101856.59;5033913;28;20029;-55
2022/03/03 02:48:02;;;;;;;30.90;20.02;;;;;;;-0.72;69.58;101853.25;5033883;28;20028;-53
2022/03/03 02:50:28;;;;;;;30.25;20.15;;;;;;;-0.72;69.35;101858.69;5016229;28;20053;-52
2022/03/03 02:52:54;;;;;;;29.95;19.40;;;;;;;-0.69;69.12;101852.00;5034869;28;20473;-55
2022/03/03 02:55:20;;;;;;;29.48;19.83;;;;;;;-0.68;68.92;101857.22;5033509;28;20025;-55
2022/03/03 02:57:56;;;;;;;28.95;20.20;;;;;;;-0.67;68.90;101853.47;5033679;28;20100;-51
2022/03/03 03:00:27;;;;;;;30.08;19.45;;;;;;;-0.67;69.10;101849.94;5033612;28;20021;-52
2022/03/03 03:02:53;;;;;;;31.30;19.60;;;;;;;-0.70;68.69;101845.72;5033931;28;20033;-55
2022/03/03 03:05:18;;;;;;;29.90;19.15;;;;;;;-0.69;68.97;101860.16;5033987;28;20480;-55
2022/03/03 03:07:44;;;;;;;30.48;20.40;;;;;;;-0.70;69.05;101858.47;5033514;28;20047;-55
2022/03/03 03:10:09;;;;;;;29.13;19.88;;;;;;;-0.73;69.19;101854.31;5040159;22;20434;-58
2022/03/03 03:12:35;;;;;;;30.42;19.63;;;;;;;-0.69;69.20;101849.28;4973661;28;20031;-54
2022/03/03 03:15:00;;;;;;;30.92;19.73;;;;;;;-0.72;69.25;101849.69;4973836;28;20027;-55
2022/03/03 03:17:25;;;;;;;31.63;19.35;;;;;;;-0.75;68.85;101850.94;4973832;28;20036;-56
2022/03/03 03:19:50;;;;;;;30.20;20.08;;;;;;;-0.72;68.83;101853.25;4974266;28;20398;-55
2022/03/03 03:22:16;;;;;;;28.98;19.70;;;;;;;-0.73;68.94;101851.59;4956872;28;20038;-54
2022/03/03 03:24:41;;;;;;;28.65;20.45;;;;;;;-0.77;69.28;101844.06;4974335;28;20471;-56
2022/03/03 03:27:06;;;;;;;28.42;19.02;;;;;;;-0.80;69.30;101840.69;4974656;28;20027;-57
2022/03/03 03:29:32;;;;;;;30.95;20.02;;;;;;;-0.85;70.17;101835.03;4974006;28;20490;-56
2022/03/03 03:31:57;;;;;;;30.63;20.13;;;;;;;-0.89;69.80;101841.06;4973457;28;20030;-56
2022/03/03 03:34:23;;;;;;;29.77;20.10;;;;;;;-0.92;69.79;101836.91;4956376;28;20490;-58
2022/03/03 03:36:48;;;;;;;31.90;19.95;;;;;;;-1.00;70.12;101827.06;4974298;28;20066;-57
2022/03/03 03:39:14;;;;;;;31.52;19.70;;;;;;;-1.01;70.63;101838.13;4956527;28;20054;-56
2022/03/03 03:41:39;;;;;;;29.40;19.88;;;;;;;-1.07;71.10;101839.78;4973834;28;20030;-56
2022/03/03 03:44:05;;;;;;;32.55;22.08;;;;;;;-1.12;71.20;101834.13;4973653;28;20042;-56
2022/03/03 03:46:30;;;;;;;32.45;21.02;;;;;;;-1.19;72.03;101830.56;4973822;28;20088;-56
2022/03/03 03:48:55;;;;;;;29.00;20.05;;;;;;;-1.26;71.95;101833.25;4973850;28;20053;-56
2022/03/03 03:51:21;;;;;;;29.70;20.20;;;;;;;-1.31;72.25;101831.13;4956537;28;20030;-57
2022/03/03 03:53:46;;;;;;;32.13;20.90;;;;;;;-1.35;72.78;101827.13;4974153;28;20027;-55
2022/03/03 03:56:11;;;;;;;29.75;19.45;;;;;;;-1.41;73.04;101819.81;4974408;28;20031;-56
2022/03/03 03:58:37;;;;;;;33.45;21.45;;;;;;;-1.45;73.36;101830.22;4973757;28;20283;-56
2022/03/03 04:01:02;;;;;;;33.58;21.45;;;;;;;-1.48;73.14;101827.09;4973548;28;20378;-57
2022/03/03 04:03:27;;;;;;;33.45;21.52;;;;;;;-1.51;73.80;101835.63;4973418;28;20058;-56
2022/03/03 04:05:52;;;;;;;29.48;20.20;;;;;;;-1.54;73.29;101828.72;4972948;28;20030;-56
2022/03/03 04:08:18;;;;;;;31.40;21.00;;;;;;;-1.57;73.67;101824.53;4973637;28;20035;-57
2022/03/03 04:10:44;;;;;;;30.20;20.83;;;;;;;-1.58;73.46;101819.28;4973118;28;20081;-56
2022/03/03 04:13:10;;;;;;;32.33;20.63;;;;;;;-1.64;73.22;101809.25;4973189;28;20150;-56
2022/03/03 04:15:35;;;;;;;29.35;20.05;;;;;;;-1.64;72.92;101807.38;4973536;28;20074;-56
2022/03/03 04:18:00;;;;;;;30.70;20.80;;;;;;;-1.56;73.25;101814.50;4973552;28;20038;-56
2022/03/03 04:20:27;;;;;;;32.40;20.70;;;;;;;-1.56;73.23;101811.81;4973141;28;20385;-55
2022/03/03 04:22:52;;;;;;;29.95;20.13;;;;;;;-1.59;73.46;101806.75;4973238;28;20090;-56
2022/03/03 04:25:18;;;;;;;32.20;19.90;;;;;;;-1.60;73.26;101813.22;4972919;28;20501;-55
2022/03/03 04:27:43;;;;;;;31.25;21.30;;;;;;;-1.64;73.93;101807.38;4972684;28;20355;-55
2022/03/03 04:30:10;;;;;;;33.60;20.25;;;;;;;-1.64;73.75;101809.25;4973399;28;20069;-55
2022/03/03 04:32:37;;;;;;;31.48;21.15;;;;;;;-1.66;73.44;101809.47;4972838;28;20039;-55
2022/03/03 04:35:03;;;;;;;31.27;20.80;;;;;;;-1.67;73.92;101804.22;4972689;28;20105;-55
2022/03/03 04:37:28;;;;;;;30.02;20.45;;;;;;;-1.66;73.39;101800.47;4973248;28;20536;-56
2022/03/03 04:39:54;;;;;;;32.85;21.15;;;;;;;-1.66;73.26;101801.31;4973150;28;20031;-56
2022/03/03 04:42:19;;;;;;;32.40;21.13;;;;;;;-1.65;73.13;101794.00;4973246;28;20031;-56
2022/03/03 04:44:44;;;;;;;32.08;21.23;;;;;;;-1.66;73.26;101785.06;4973009;28;20125;-55
2022/03/03 04:47:09;;;;;;;29.55;20.00;;;;;;;-1.67;73.49;101788.81;4973109;28;20030;-56
2022/03/03 04:49:35;;;;;;;31.20;20.83;;;;;;;-1.70;73.77;101794.63;4973018;28;20026;-55
2022/03/03 04:52:01;;;;;;;31.17;21.23;;;;;;;-1.73;73.46;101782.28;4973246;28;20070;-56
2022/03/03 04:54:26;;;;;;;32.40;21.10;;;;;;;-1.76;73.97;101779.16;4955699;28;20059;-56
2022/03/03 04:56:54;;;;;;;31.27;21.40;;;;;;;-1.79;73.52;101777.66;4973230;28;20035;-56
2022/03/03 04:59:19;;;;;;;31.20;20.73;;;;;;;-1.81;73.63;101774.31;4973334;28;20027;-55
2022/03/03 05:01:45;;;;;;;30.63;20.90;;;;;;;-1.81;73.47;101785.19;4972371;28;20482;-55
2022/03/03 05:04:10;;;;;;;32.08;21.20;;;;;;;-1.86;73.97;101779.50;4972880;28;20382;-56
2022/03/03 05:06:35;;;;;;;32.88;21.35;;;;;;;-1.86;74.40;101779.50;4972306;28;20073;-55
2022/03/03 05:09:01;;;;;;;33.38;20.77;;;;;;;-1.91;74.90;101793.66;4972731;28;20470;-57
2022/03/03 05:11:26;;;;;;;32.47;22.17;;;;;;;-1.95;74.69;101789.69;4972607;28;20130;-55
2022/03/03 05:13:51;;;;;;;32.15;21.05;;;;;;;-1.98;74.75;101783.81;4972506;28;20107;-55
2022/03/03 05:16:17;;;;;;;32.92;21.70;;;;;;;-2.01;74.66;101790.47;4972663;28;20066;-55
2022/03/03 05:18:42;;;;;;;31.08;21.85;;;;;;;-2.07;75.64;101785.84;4955503;28;20030;-55
2022/03/03 05:21:07;;;;;;;33.22;21.63;;;;;;;-2.06;75.57;101796.47;4972428;28;20116;-57
2022/03/03 05:23:32;;;;;;;33.65;22.23;;;;;;;-2.08;74.64;101792.31;4972589;28;20386;-54
2022/03/03 05:25:58;;;;;;;31.33;21.13;;;;;;;-2.08;74.61;101792.31;4972607;28;20451;-55
2022/03/03 05:28:23;;;;;;;30.83;20.63;;;;;;;-2.09;74.88;101785.19;4972066;28;20027;-57
2022/03/03 05:30:48;;;;;;;32.67;21.40;;;;;;;-2.09;75.24;101794.19;4972145;28;20562;-56
2022/03/03 05:33:14;;;;;;;33.50;20.80;;;;;;;-2.08;75.70;101797.72;4972729;28;20037;-57
2022/03/03 05:35:40;;;;;;;34.63;22.13;;;;;;;-2.12;75.28;101802.72;4972072;28;20041;-56
2022/03/03 05:38:05;;;;;;;33.33;21.35;;;;;;;-2.14;75.69;101796.63;4955683;28;20411;-57
2022/03/03 05:40:31;;;;;;;33.30;21.95;;;;;;;-2.16;75.75;101801.41;4975923;28;20031;-57
2022/03/03 05:42:56;;;;;;;34.65;21.38;;;;;;;-2.19;75.90;101799.13;4975908;28;20027;-58
2022/03/03 05:45:22;;;;;;;31.70;21.58;;;;;;;-2.17;75.74;101798.91;4975479;28;20102;-56
2022/03/03 05:47:48;;;;;;;33.50;21.20;;;;;;;-2.17;75.46;101788.88;4975323;28;20062;-56
2022/03/03 05:50:13;;;;;;;31.58;20.95;;;;;;;-2.16;75.14;101795.16;4975220;28;20069;-58
2022/03/03 05:52:38;;;;;;;35.17;21.88;;;;;;;-2.14;75.75;101796.63;4975278;28;20463;-57
2022/03/03 05:55:05;;;;;;;33.72;20.40;;;;;;;-2.15;75.41;101789.53;4975750;28;20028;-56
2022/03/03 05:57:36;;;;;;;31.10;21.67;;;;;;;-2.18;75.34;101786.38;4975897;28;20081;-56
2022/03/03 06:00:07;;;;;;;33.25;20.95;;;;;;;-2.18;75.84;101786.38;4975829;28;20114;-54
2022/03/03 06:02:32;;;;;;;33.50;21.33;;;;;;;-2.19;75.52;101782.84;4974974;28;20061;-56
2022/03/03 06:04:58;;;;;;;32.55;22.25;;;;;;;-2.20;76.11;101798.25;4975251;28;20054;-55
2022/03/03 06:07:25;;;;;;;31.90;21.92;;;;;;;-2.40;75.55;101760.19;4975221;28;20081;-56
2022/03/03 06:09:52;;;;;;;32.33;20.83;;;;;;;-2.21;75.77;101787.63;4975642;28;20054;-55
2022/03/03 06:12:22;;;;;;;31.90;21.40;;;;;;;-2.23;76.26;101793.25;4974708;28;20113;-56
2022/03/03 06:14:55;;;;;;;31.88;22.52;;;;;;;-2.23;76.15;101795.13;4975611;28;20034;-56
2022/03/03 06:17:23;;;;;;;34.13;23.27;;;;;;;-2.24;76.04;101786.16;4975406;28;20031;-56
2022/03/03 06:19:49;;;;;;;32.63;23.08;;;;;;;-2.23;75.51;101786.97;4976484;28;20062;-57
2022/03/03 06:22:15;;;;;;;33.53;21.30;;;;;;;-2.23;76.03;101789.69;4976326;28;20026;-57
2022/03/03 06:24:41;;;;;;;31.02;21.73;;;;;;;-2.22;75.91;101791.38;4976394;28;20529;-57
2022/03/03 06:27:07;;;;;;;33.60;22.65;;;;;;;-2.17;75.33;101799.75;4958931;28;20035;-57
2022/03/03 06:29:33;;;;;;;35.17;22.27;;;;;;;-2.16;75.57;101796.00;4976622;28;20109;-56
2022/03/03 06:31:58;;;;;;;33.42;22.80;;;;;;;-2.13;75.75;101792.91;4976166;28;20166;-56
2022/03/03 06:34:23;;;;;;;32.75;21.30;;;;;;;-2.09;75.37;101793.34;4975782;28;20031;-59
2022/03/03 06:36:50;;;;;;;31.17;20.90;;;;;;;-2.09;75.65;101802.31;4975801;28;20479;-56
2022/03/03 06:39:15;;;;;;;31.83;20.20;;;;;;;-2.06;76.01;101795.66;4975778;28;20067;-57
2022/03/03 06:41:40;;;;;;;33.63;21.50;;;;;;;-2.04;75.21;101796.31;4976177;28;20469;-57
2022/03/03 06:44:07;;;;;;;31.42;20.95;;;;;;;-2.00;74.66;101796.75;4975614;28;20533;-57
2022/03/03 06:46:32;;;;;;;31.58;21.00;;;;;;;-1.99;74.56;101803.84;4975790;28;20034;-56
2022/03/03 06:48:57;;;;;;;32.78;20.75;;;;;;;-1.99;75.08;101799.25;4974765;28;20479;-56
2022/03/03 06:51:29;;;;;;;31.40;21.40;;;;;;;-1.99;75.07;101799.25;4975270;28;20113;-56
2022/03/03 06:54:01;;;;;;;31.73;19.98;;;;;;;-1.93;74.84;101809.28;4975216;28;20027;-56
2022/03/03 06:56:30;;;;;;;33.42;20.95;;;;;;;-1.97;74.98;101794.47;4972473;28;20026;-56
2022/03/03 06:58:57;;;;;;;32.13;20.65;;;;;;;-1.85;75.21;101810.19;4972762;28;20026;-56
2022/03/03 07:01:24;;;;;;;31.48;20.35;;;;;;;-1.91;74.95;101799.09;4973177;28;20404;-56
2022/03/03 07:03:50;;;;;;;31.33;20.15;;;;;;;-1.77;74.17;101808.13;4972731;28;20044;-57
2022/03/03 07:06:16;;;;;;;32.58;19.98;;;;;;;-1.69;74.57;101818.00;4973065;28;20039;-57
2022/03/03 07:08:42;;;;;;;30.85;19.83;;;;;;;-1.64;74.02;101811.97;4972682;28;20031;-56
2022/03/03 07:11:07;;;;;;;31.95;19.67;;;;;;;-1.59;74.48;101817.63;4972750;28;20047;-57
2022/03/03 07:13:33;;;;;;;33.17;20.13;;;;;;;-1.49;74.17;101822.69;4970873;28;20109;-57
2022/03/03 07:16:28;;;;;;;29.45;19.85;;;;;;;-1.41;73.13;101822.53;4972610;28;20212;-57
2022/03/03 07:18:54;;;;;;;31.63;20.10;;;;;;;-1.35;72.98;101816.28;4959585;28;20039;-56
2022/03/03 07:21:31;;;;;;;33.97;19.65;;;;;;;-1.30;72.99;101816.53;4972731;28;20042;-56
2022/03/03 07:24:12;;;;;;;32.85;19.98;;;;;;;-1.30;73.01;101802.94;4972600;28;20097;-56
2022/03/03 07:26:37;;;;;;;31.48;20.02;;;;;;;-1.12;72.76;101823.25;4972757;28;20035;-57
2022/03/03 07:29:04;;;;;;;31.10;19.67;;;;;;;-1.01;72.87;101830.81;4955323;28;20034;-56
2022/03/03 07:31:31;;;;;;;31.50;20.02;;;;;;;-0.93;72.65;101828.97;4973019;28;20441;-57
2022/03/03 07:34:01;;;;;;;30.38;19.48;;;;;;;-0.88;72.13;101819.16;4973010;28;20058;-57
2022/03/03 07:36:32;;;;;;;31.35;19.52;;;;;;;-0.86;71.87;101814.34;4972676;28;20022;-56
2022/03/03 07:39:02;;;;;;;31.67;20.38;;;;;;;-0.70;71.60;101823.97;4973077;28;20117;-56
2022/03/03 07:41:28;;;;;;;31.67;20.88;;;;;;;-0.63;71.48;101818.56;4972517;28;20026;-56
2022/03/03 07:43:55;;;;;;;31.23;20.20;;;;;;;-0.55;71.44;101814.81;4972352;28;20030;-56
2022/03/03 07:46:22;;;;;;;33.80;20.77;;;;;;;-0.44;71.54;101825.06;4972191;28;20508;-56
2022/03/03 07:48:48;;;;;;;29.83;20.10;;;;;;;-0.39;71.31;101819.00;4955079;28;20077;-57
2022/03/03 07:51:13;;;;;;;31.48;19.60;;;;;;;-0.28;70.78;101818.34;4972389;28;20105;-56
2022/03/03 07:53:39;;;;;;;31.70;20.60;;;;;;;-0.20;70.69;101822.75;4972512;28;20027;-57
2022/03/03 07:56:07;;;;;;;30.90;21.27;;;;;;;-0.10;70.19;101822.34;4972262;28;20034;-57
2022/03/03 07:58:35;;;;;;;30.13;19.83;;;;;;;-0.01;69.90;101830.06;4972359;28;20538;-55
2022/03/03 08:01:03;;;;;;;31.33;20.15;;;;;;;0.08;70.34;101836.16;4971627;28;20041;-57
2022/03/03 08:03:30;;;;;;;31.63;20.67;;;;;;;0.16;69.80;101832.34;4954890;28;20027;-56
2022/03/03 08:05:57;;;;;;;32.95;20.98;;;;;;;0.24;69.36;101823.94;4972170;28;20030;-56
2022/03/03 08:08:28;;;;;;;32.22;20.75;;;;;;;0.34;69.52;101830.84;4972349;28;20517;-56
2022/03/03 08:11:05;;;;;;;35.17;21.30;;;;;;;0.45;69.11;101832.91;4971947;28;20054;-56
2022/03/03 08:13:31;;;;;;;31.45;21.13;;;;;;;0.55;68.33;101830.56;4970467;28;20046;-57
2022/03/03 08:15:57;;;;;;;31.38;20.95;;;;;;;0.64;68.70;101827.59;4971953;28;20030;-57
2022/03/03 08:18:32;;;;;;;32.65;20.63;;;;;;;0.74;68.29;101825.28;4971680;28;20082;-56
2022/03/03 08:21:00;;;;;;;32.70;21.85;;;;;;;0.86;67.86;101828.13;4971743;28;20030;-56
2022/03/03 08:23:26;;;;;;;31.38;20.13;;;;;;;0.91;68.06;101826.44;4971742;28;20062;-56
2022/03/03 08:25:54;;;;;;;32.03;20.88;;;;;;;1.05;67.77;101835.38;4954203;28;20030;-55
2022/03/03 08:28:23;;;;;;;36.30;20.95;;;;;;;1.14;66.97;101827.81;4971724;28;20129;-56
2022/03/03 08:30:51;;;;;;;31.98;20.25;;;;;;;1.23;66.50;101829.22;4971552;28;20023;-56
2022/03/03 08:33:25;;;;;;;34.85;21.38;;;;;;;1.36;64.98;101824.75;4971427;28;20026;-56
2022/03/03 08:35:56;;;;;;;32.08;21.05;;;;;;;1.49;65.79;101831.97;4971193;28;20046;-55
2022/03/03 08:38:24;;;;;;;30.92;20.48;;;;;;;1.55;65.26;101826.50;4971412;28;20022;-55
2022/03/03 08:40:55;;;;;;;32.70;19.65;;;;;;;1.64;64.11;101820.75;4953610;28;20435;-55
2022/03/03 08:43:22;;;;;;;29.08;19.15;;;;;;;1.74;63.79;101814.78;4970709;28;20030;-56
2022/03/03 08:45:51;;;;;;;29.90;19.20;;;;;;;1.94;63.25;101829.09;4971122;28;20113;-56
2022/03/03 08:48:20;;;;;;;27.98;18.80;;;;;;;2.04;62.78;101817.66;4971129;28;20030;-55
2022/03/03 08:50:49;;;;;;;28.90;19.08;;;;;;;2.20;61.98;101826.34;4971215;28;20035;-56
2022/03/03 08:53:15;;;;;;;30.98;19.05;;;;;;;2.29;61.14;101827.72;4970631;28;20479;-54
2022/03/03 08:55:40;;;;;;;29.27;18.35;;;;;;;2.42;59.67;101824.81;4970866;28;20037;-56
2022/03/03 08:58:06;;;;;;;31.17;18.35;;;;;;;2.53;59.85;101822.41;4970899;28;20030;-55
2022/03/03 09:00:32;;;;;;;29.80;17.98;;;;;;;2.61;59.09;101816.63;4971364;28;20031;-55
2022/03/03 09:02:59;;;;;;;29.27;19.20;;;;;;;2.71;59.46;101827.03;4971247;28;20446;-56
2022/03/03 09:05:24;;;;;;;30.08;18.48;;;;;;;2.79;59.41;101819.34;4971250;28;20031;-55
2022/03/03 09:07:49;;;;;;;28.15;18.17;;;;;;;2.91;58.92;101821.28;4971140;28;20037;-55
2022/03/03 09:10:15;;;;;;;28.80;17.42;;;;;;;3.00;58.17;101825.38;4971292;28;20131;-55
2022/03/03 09:12:41;;;;;;;33.60;17.65;;;;;;;3.11;58.26;101818.31;4973062;28;20034;-56
2022/03/03 09:15:08;;;;;;;28.25;17.30;;;;;;;3.23;57.44;101818.34;4972371;28;20030;-54
2022/03/03 09:17:33;;;;;;;28.33;17.00;;;;;;;3.32;56.50;101816.94;4973562;28;20043;-57
2022/03/03 09:20:02;;;;;;;27.60;17.23;;;;;;;3.42;57.52;101819.94;4974871;28;20138;-55
2022/03/03 09:22:27;;;;;;;27.70;16.67;;;;;;;3.53;56.46;101821.03;4975084;28;20023;-55
2022/03/03 09:24:54;;;;;;;25.95;16.20;;;;;;;3.62;55.91;101809.75;4974586;28;20496;-55
2022/03/03 09:27:19;;;;;;;27.38;16.77;;;;;;;3.74;53.90;101816.91;4974736;28;20044;-58
2022/03/03 09:29:45;;;;;;;27.42;16.60;;;;;;;3.84;53.13;101805.38;4974689;28;20109;-57
2022/03/03 09:32:12;;;;;;;27.35;16.75;;;;;;;3.93;53.65;101796.81;4974625;28;20046;-56
2022/03/03 09:34:38;;;;;;;28.00;16.75;;;;;;;4.01;53.56;101799.19;4972068;28;20117;-56
2022/03/03 09:37:03;;;;;;;31.13;17.88;;;;;;;4.11;53.39;101799.41;4974990;28;20511;-55
2022/03/03 09:39:28;;;;;;;29.55;17.42;;;;;;;4.20;53.66;101806.19;4975063;28;20049;-56
2022/03/03 09:41:54;;;;;;;28.63;17.00;;;;;;;4.27;52.27;101800.59;4975060;28;20069;-54
2022/03/03 09:44:24;;;;;;;26.45;17.02;;;;;;;4.27;51.22;101784.16;4975052;28;20545;-56
2022/03/03 09:46:50;;;;;;;29.17;16.60;;;;;;;4.40;52.25;101802.25;4974554;28;20031;-55
2022/03/03 09:49:16;;;;;;;28.00;16.88;;;;;;;4.51;51.83;101793.19;4974193;28;20375;-55
2022/03/03 09:51:41;;;;;;;25.80;16.05;;;;;;;4.61;51.93;101798.03;4974537;28;20031;-54
2022/03/03 09:54:07;;;;;;;27.83;17.27;;;;;;;4.67;51.57;101783.38;4974542;28;20078;-55
2022/03/03 09:56:33;;;;;;;28.90;17.55;;;;;;;4.81;52.00;101791.28;4974570;28;20030;-53
2022/03/03 09:58:58;;;;;;;29.52;17.20;;;;;;;4.87;52.07;101795.78;4974630;28;20118;-55
2022/03/03 10:01:28;;;;;;;32.63;18.05;;;;;;;4.96;51.47;101790.75;4974566;28;20031;-53
2022/03/03 10:03:54;;;;;;;28.75;16.65;;;;;;;5.03;50.13;101793.34;4973749;28;20089;-55
2022/03/03 10:06:22;;;;;;;26.67;15.98;;;;;;;5.10;50.93;101797.59;4956529;28;20030;-54
2022/03/03 10:08:50;;;;;;;26.77;16.75;;;;;;;5.17;52.00;101793.88;4974034;28;20027;-53
2022/03/03 10:11:15;;;;;;;28.42;16.73;;;;;;;5.22;50.25;101794.81;4973489;28;20473;-55
2022/03/03 10:13:52;;;;;;;26.73;16.73;;;;;;;5.34;51.08;101785.69;4971826;28;20122;-54
2022/03/03 10:16:29;;;;;;;27.30;15.77;;;;;;;5.33;49.40;101773.06;4956565;28;20026;-56
2022/03/03 10:19:04;;;;;;;27.92;16.50;;;;;;;5.39;49.54;101777.53;4974197;28;20037;-56
2022/03/03 10:21:33;;;;;;;27.02;16.48;;;;;;;5.56;50.05;101783.03;4973886;28;20034;-56
2022/03/03 10:24:00;;;;;;;28.60;17.63;;;;;;;5.63;49.32;101781.78;4972780;28;20034;-56
2022/03/03 10:26:38;;;;;;;25.85;15.90;;;;;;;5.51;48.52;101745.38;4973156;28;20128;-55
2022/03/03 10:29:18;;;;;;;28.02;16.48;;;;;;;5.71;48.19;101786.03;4974079;28;20373;-56
2022/03/03 10:31:52;;;;;;;27.10;17.63;;;;;;;5.72;47.84;101770.38;4973610;28;20035;-56
2022/03/03 10:34:22;;;;;;;25.63;16.45;;;;;;;5.76;47.87;101761.38;4973651;28;20089;-56
2022/03/03 10:36:59;;;;;;;29.08;17.05;;;;;;;5.91;48.02;101779.19;4973117;28;20037;-56
2022/03/03 10:39:25;;;;;;;29.65;16.75;;;;;;;5.96;47.73;101778.44;4973428;28;20046;-55
2022/03/03 10:41:55;;;;;;;26.75;16.83;;;;;;;5.91;47.16;101769.03;4973475;28;20039;-53
2022/03/03 10:44:32;;;;;;;25.90;15.70;;;;;;;6.06;47.28;101787.69;4956315;28;20050;-55
2022/03/03 10:47:03;;;;;;;25.88;16.63;;;;;;;6.13;46.90;101783.94;4973780;28;20023;-55
2022/03/03 10:49:29;;;;;;;26.92;17.20;;;;;;;6.20;46.06;101770.84;4973515;28;20474;-55
2022/03/03 10:51:54;;;;;;;27.15;17.10;;;;;;;6.27;46.16;101776.16;4973098;28;20089;-56
2022/03/03 10:54:20;;;;;;;26.35;16.80;;;;;;;6.36;46.43;101777.38;4972534;28;20249;-54
2022/03/03 10:56:47;;;;;;;26.98;17.13;;;;;;;6.35;46.53;101762.78;4972456;28;20031;-56
2022/03/03 10:59:25;;;;;;;27.17;16.85;;;;;;;6.42;46.72;101759.84;4973353;28;20390;-56
2022/03/03 11:01:52;;;;;;;26.35;17.45;;;;;;;6.58;46.39;101768.28;4973050;28;20035;-56
2022/03/03 11:04:20;;;;;;;25.73;16.67;;;;;;;6.64;46.66;101767.28;4972938;28;20033;-56
2022/03/03 11:06:48;;;;;;;25.42;16.80;;;;;;;6.68;46.99;101771.16;4973013;28;20030;-56
2022/03/03 11:09:14;;;;;;;24.50;16.00;;;;;;;6.80;46.39;101784.78;4972634;28;20483;-56